Time;durP1;ratioP1;P1;durP2;ratioP2;P2;SDS_P1;SDS_P2;PMS_P1;PMS_P2;Temp;Humidity;BMP_temperature;BMP_pressure;BME280_temperature;BME280_humidity;BME280_pressure;Samples;Min_cycle;Max_cycle;Signal;HPM_P1;HPM_P2
2022/11/08 00:02:11;;;;;;;5.28;4.03;;;;;;;;;;5023889;28;20585;-74
2022/11/08 00:04:41;;;;;;;5.72;4.57;;;;;;;;;;5026098;28;20096;-74
2022/11/08 00:15:32;;;;;;;6.15;4.85;;;;;;;;;;5026242;28;20073;-74
2022/11/08 00:17:59;;;;;;;6.07;5.20;;;;;;;;;;5026658;28;20081;-74
2022/11/08 00:20:26;;;;;;;8.48;4.72;;;;;;;;;;5025465;28;20057;-74
2022/11/08 00:22:54;;;;;;;10.55;4.93;;;;;;;;;;5024311;28;20037;-74
2022/11/08 00:25:21;;;;;;;10.73;5.82;;;;;;;;;;5025818;28;20045;-74
2022/11/08 00:27:48;;;;;;;6.05;4.68;;;;;;;;;;5024168;28;20072;-74
2022/11/08 00:30:16;;;;;;;9.18;5.38;;;;;;;;;;5009759;28;20049;-74
2022/11/08 00:32:43;;;;;;;13.70;5.10;;;;;;;;;;5024756;28;20041;-74
2022/11/08 00:35:10;;;;;;;10.63;5.93;;;;;;;;;;5038019;28;20049;-74
2022/11/08 00:37:38;;;;;;;7.40;5.78;;;;;;;;;;5041822;28;20053;-74
2022/11/08 00:40:05;;;;;;;16.50;6.13;;;;;;;;;;5044810;28;20033;-74
2022/11/08 00:42:33;;;;;;;13.43;5.97;;;;;;;;;;5023751;28;20050;-74
2022/11/08 00:45:00;;;;;;;15.45;5.60;;;;;;;;;;5011703;28;20038;-74
2022/11/08 00:47:27;;;;;;;10.70;5.03;;;;;;;;;;5010688;28;20069;-74
2022/11/08 00:49:55;;;;;;;9.23;5.65;;;;;;;;;;4992038;28;20042;-74
2022/11/08 00:52:22;;;;;;;24.05;6.40;;;;;;;;;;5008707;28;20125;-74
2022/11/08 00:54:49;;;;;;;7.13;5.88;;;;;;;;;;5024311;28;20068;-74
2022/11/08 00:57:17;;;;;;;8.38;5.32;;;;;;;;;;5010926;28;20068;-74
2022/11/08 00:59:51;;;;;;;8.13;6.63;;;;;;;;;;5005242;28;20065;-74
2022/11/08 01:02:18;;;;;;;13.68;4.82;;;;;;;;;;5008070;28;20049;-74
2022/11/08 01:04:45;;;;;;;8.98;4.82;;;;;;;;;;5008302;28;20042;-74
2022/11/08 01:07:13;;;;;;;23.13;5.43;;;;;;;;;;5019007;28;20420;-75
2022/11/08 01:09:40;;;;;;;12.43;5.78;;;;;;;;;;5009258;28;20065;-74
2022/11/08 01:12:07;;;;;;;6.25;5.03;;;;;;;;;;5021792;28;20045;-74
2022/11/08 01:14:35;;;;;;;10.95;5.07;;;;;;;;;;5025770;28;20042;-74
2022/11/08 01:17:02;;;;;;;8.07;4.97;;;;;;;;;;5023853;28;20057;-74
2022/11/08 01:19:29;;;;;;;5.18;4.68;;;;;;;;;;5008963;28;20033;-74
2022/11/08 01:21:56;;;;;;;5.50;4.80;;;;;;;;;;5026873;28;20041;-74
2022/11/08 01:24:24;;;;;;;6.82;4.95;;;;;;;;;;5022951;28;20037;-74
2022/11/08 01:26:51;;;;;;;7.05;4.97;;;;;;;;;;4992774;28;20037;-75
2022/11/08 01:29:18;;;;;;;14.80;5.85;;;;;;;;;;5008007;28;20063;-75
2022/11/08 01:31:46;;;;;;;15.93;5.97;;;;;;;;;;5006224;28;20041;-74
2022/11/08 01:34:13;;;;;;;7.18;5.10;;;;;;;;;;5006174;28;20688;-73
2022/11/08 01:36:40;;;;;;;11.55;4.28;;;;;;;;;;5025303;28;20064;-74
2022/11/08 01:39:08;;;;;;;19.25;5.35;;;;;;;;;;5022578;28;20045;-74
2022/11/08 01:41:38;;;;;;;23.48;6.40;;;;;;;;;;5007334;28;20141;-75
2022/11/08 01:44:05;;;;;;;20.92;5.10;;;;;;;;;;5019577;28;20128;-75
2022/11/08 01:46:40;;;;;;;28.20;6.70;;;;;;;;;;5026480;28;20049;-75
2022/11/08 01:49:23;;;;;;;26.40;5.70;;;;;;;;;;5024330;28;20132;-75
2022/11/08 01:51:54;;;;;;;20.98;5.55;;;;;;;;;;5023102;28;20124;-74
2022/11/08 01:54:27;;;;;;;12.45;6.45;;;;;;;;;;5025853;28;20442;-74
2022/11/08 01:56:56;;;;;;;12.68;4.88;;;;;;;;;;5024101;28;20406;-74
2022/11/08 01:59:23;;;;;;;23.40;6.00;;;;;;;;;;5025031;28;20045;-74
2022/11/08 02:01:53;;;;;;;12.25;5.70;;;;;;;;;;5028154;28;20049;-75
2022/11/08 02:04:21;;;;;;;24.88;6.10;;;;;;;;;;5027456;28;20045;-74
2022/11/08 02:06:49;;;;;;;13.05;4.88;;;;;;;;;;5009970;28;20041;-74
2022/11/08 02:09:18;;;;;;;11.88;5.05;;;;;;;;;;4992817;28;20766;-74
2022/11/08 02:11:46;;;;;;;8.07;5.13;;;;;;;;;;5006524;28;20053;-73
2022/11/08 02:14:13;;;;;;;13.77;5.93;;;;;;;;;;5006324;28;20068;-73
2022/11/08 02:16:41;;;;;;;12.57;5.93;;;;;;;;;;5031141;28;20443;-74
2022/11/08 02:19:12;;;;;;;18.13;5.38;;;;;;;;;;5010341;28;20128;-75
2022/11/08 02:21:47;;;;;;;19.30;6.05;;;;;;;;;;5029735;28;20453;-75
2022/11/08 02:24:14;;;;;;;6.72;4.93;;;;;;;;;;5029325;28;20572;-74
2022/11/08 02:26:43;;;;;;;13.70;5.40;;;;;;;;;;5032222;28;20045;-74
2022/11/08 02:29:23;;;;;;;13.07;4.95;;;;;;;;;;5040391;28;20055;-74
2022/11/08 02:31:50;;;;;;;13.02;5.90;;;;;;;;;;5046935;28;20070;-73
2022/11/08 02:34:18;;;;;;;17.15;5.32;;;;;;;;;;5028443;28;20049;-75
2022/11/08 02:36:48;;;;;;;14.65;5.82;;;;;;;;;;5028154;28;20478;-74
2022/11/08 02:39:15;;;;;;;13.35;5.63;;;;;;;;;;5028966;28;20128;-74
2022/11/08 02:41:42;;;;;;;7.07;5.85;;;;;;;;;;5027397;28;20536;-74
2022/11/08 02:44:10;;;;;;;13.30;6.43;;;;;;;;;;5027179;28;20049;-74
2022/11/08 02:46:37;;;;;;;14.43;5.80;;;;;;;;;;5030059;28;20041;-74
2022/11/08 02:49:04;;;;;;;35.45;6.57;;;;;;;;;;5014158;28;20416;-73
2022/11/08 02:51:32;;;;;;;21.38;5.82;;;;;;;;;;5030434;28;20139;-74
2022/11/08 02:53:59;;;;;;;17.45;6.18;;;;;;;;;;5028545;28;20080;-73
2022/11/08 02:56:26;;;;;;;8.43;5.05;;;;;;;;;;5029992;28;20057;-74
2022/11/08 02:58:54;;;;;;;11.18;5.22;;;;;;;;;;5029901;28;20045;-74
2022/11/08 03:01:21;;;;;;;14.65;5.05;;;;;;;;;;5029740;28;20103;-74
2022/11/08 03:03:48;;;;;;;15.70;4.75;;;;;;;;;;5029730;28;20050;-75
2022/11/08 03:06:16;;;;;;;10.23;5.72;;;;;;;;;;5030005;28;20394;-74
2022/11/08 03:08:45;;;;;;;7.88;5.10;;;;;;;;;;5028249;28;20044;-74
2022/11/08 03:11:12;;;;;;;9.30;5.20;;;;;;;;;;5024686;28;20045;-73
2022/11/08 03:13:39;;;;;;;7.28;5.20;;;;;;;;;;5005593;28;20046;-73
2022/11/08 03:16:07;;;;;;;9.32;4.80;;;;;;;;;;5009126;28;20061;-73
2022/11/08 03:18:34;;;;;;;6.38;5.75;;;;;;;;;;5021492;28;20050;-73
2022/11/08 03:21:02;;;;;;;7.53;4.85;;;;;;;;;;5022429;28;20131;-73
2022/11/08 03:23:30;;;;;;;7.05;5.25;;;;;;;;;;5022437;28;20060;-73
2022/11/08 03:26:02;;;;;;;4.85;4.45;;;;;;;;;;5010825;28;20053;-73
2022/11/08 03:28:29;;;;;;;9.00;5.03;;;;;;;;;;5024413;28;20042;-74
2022/11/08 03:30:56;;;;;;;13.73;4.85;;;;;;;;;;5019364;28;20084;-74
2022/11/08 03:33:24;;;;;;;8.38;4.68;;;;;;;;;;5020942;28;20045;-75
2022/11/08 03:35:52;;;;;;;6.75;5.25;;;;;;;;;;5010479;28;20060;-74
2022/11/08 03:38:19;;;;;;;16.08;5.22;;;;;;;;;;5024410;28;20096;-74
2022/11/08 03:40:47;;;;;;;9.52;5.45;;;;;;;;;;5025889;28;20416;-75
2022/11/08 03:43:14;;;;;;;10.82;5.63;;;;;;;;;;5028423;28;20037;-75
2022/11/08 03:45:42;;;;;;;8.55;6.40;;;;;;;;;;5022313;28;20049;-75
2022/11/08 03:48:09;;;;;;;13.65;6.70;;;;;;;;;;5023078;28;20551;-75
2022/11/08 03:50:36;;;;;;;15.15;5.35;;;;;;;;;;5028150;28;20043;-75
2022/11/08 03:53:04;;;;;;;9.30;5.97;;;;;;;;;;5024118;28;20534;-75
2022/11/08 03:55:31;;;;;;;11.45;5.43;;;;;;;;;;5009635;28;20049;-75
2022/11/08 03:57:58;;;;;;;13.35;5.30;;;;;;;;;;5026889;28;20072;-74
2022/11/08 04:00:27;;;;;;;7.38;5.28;;;;;;;;;;5025902;28;20046;-75
2022/11/08 04:02:59;;;;;;;12.75;5.43;;;;;;;;;;5007766;28;20405;-74
2022/11/08 04:05:27;;;;;;;;;;;;;;;;;;5028281;28;20033;-74
2022/11/08 04:07:54;;;;;;;17.10;5.20;;;;;;;;;;5021847;28;20020;-74
2022/11/08 04:10:21;;;;;;;11.90;5.45;;;;;;;;;;5007951;28;20465;-74
2022/11/08 04:15:34;;;;;;;12.27;5.03;;;;;;;;;;5029478;28;20068;-73
2022/11/08 04:23:37;;;;;;;7.60;5.40;;;;;;;;;;5044254;28;20243;-74
2022/11/08 04:26:06;;;;;;;11.70;6.00;;;;;;;;;;5045993;28;20045;-74
2022/11/08 04:28:35;;;;;;;10.95;5.43;;;;;;;;;;5031057;28;20207;-74
2022/11/08 04:31:13;;;;;;;8.13;5.88;;;;;;;;;;5028000;28;20045;-74
2022/11/08 04:33:40;;;;;;;8.20;6.47;;;;;;;;;;5022042;28;20425;-75
2022/11/08 04:36:12;;;;;;;6.70;5.57;;;;;;;;;;5025365;28;20042;-74
2022/11/08 04:38:40;;;;;;;11.23;6.18;;;;;;;;;;5024887;28;20132;-74
2022/11/08 04:41:12;;;;;;;13.13;6.88;;;;;;;;;;5006982;28;20448;-74
2022/11/08 04:43:39;;;;;;;12.02;6.88;;;;;;;;;;5010377;28;20052;-74
2022/11/08 04:46:08;;;;;;;9.18;6.63;;;;;;;;;;5027851;28;20731;-74
2022/11/08 04:48:36;;;;;;;12.68;5.72;;;;;;;;;;5029065;28;20520;-74
2022/11/08 04:51:04;;;;;;;14.52;7.05;;;;;;;;;;5026295;28;20045;-74
2022/11/08 04:53:32;;;;;;;15.85;7.85;;;;;;;;;;5027740;28;20048;-74
2022/11/08 04:56:03;;;;;;;13.43;8.23;;;;;;;;;;5028894;28;20049;-75
2022/11/08 04:58:35;;;;;;;21.25;7.75;;;;;;;;;;5027082;28;20127;-75
2022/11/08 05:01:02;;;;;;;30.67;7.43;;;;;;;;;;5027912;28;20046;-75
2022/11/08 05:03:30;;;;;;;18.83;6.80;;;;;;;;;;5027796;28;20077;-75
2022/11/08 05:06:04;;;;;;;11.77;7.05;;;;;;;;;;5027285;28;20038;-75
2022/11/08 05:08:32;;;;;;;11.18;7.55;;;;;;;;;;5021387;28;20049;-75
2022/11/08 05:11:03;;;;;;;7.82;5.97;;;;;;;;;;5025707;28;20068;-75
2022/11/08 05:13:30;;;;;;;13.05;5.60;;;;;;;;;;5026631;28;20044;-75
2022/11/08 05:16:02;;;;;;;8.95;6.00;;;;;;;;;;5007471;28;20045;-75
2022/11/08 05:18:30;;;;;;;6.07;5.53;;;;;;;;;;5024729;28;20049;-75
2022/11/08 05:23:45;;;;;;;9.63;6.22;;;;;;;;;;5022070;28;20046;-75
2022/11/08 05:26:12;;;;;;;14.32;6.57;;;;;;;;;;5019595;28;20092;-75
2022/11/08 05:28:39;;;;;;;12.00;7.10;;;;;;;;;;5018630;28;20445;-75
2022/11/08 05:31:07;;;;;;;13.75;6.22;;;;;;;;;;5029337;28;20047;-76
2022/11/08 05:33:36;;;;;;;12.27;6.95;;;;;;;;;;5007542;28;20481;-76
2022/11/08 05:36:11;;;;;;;18.15;7.70;;;;;;;;;;5026973;28;20048;-75
2022/11/08 05:38:42;;;;;;;9.60;6.25;;;;;;;;;;5028189;28;20040;-75
2022/11/08 05:41:12;;;;;;;10.75;6.75;;;;;;;;;;5020484;28;20149;-75
2022/11/08 05:43:39;;;;;;;11.38;7.60;;;;;;;;;;5021705;28;20069;-75
2022/11/08 05:46:07;;;;;;;13.00;7.80;;;;;;;;;;5004880;28;20037;-75
2022/11/08 05:48:34;;;;;;;13.32;8.05;;;;;;;;;;5021856;28;20045;-75
2022/11/08 05:51:02;;;;;;;20.83;6.75;;;;;;;;;;5022988;28;20065;-75
2022/11/08 05:53:29;;;;;;;17.00;7.43;;;;;;;;;;5022685;28;20490;-75
2022/11/08 05:55:58;;;;;;;10.75;7.80;;;;;;;;;;5028290;28;20056;-75
2022/11/08 05:58:29;;;;;;;10.20;6.82;;;;;;;;;;4989460;28;20045;-76
2022/11/08 06:01:03;;;;;;;15.63;7.72;;;;;;;;;;5035447;28;20060;-76
2022/11/08 06:03:31;;;;;;;10.70;7.13;;;;;;;;;;5031684;28;20046;-76
2022/11/08 06:06:09;;;;;;;17.98;7.50;;;;;;;;;;5028413;28;20073;-75
2022/11/08 06:08:36;;;;;;;11.00;6.80;;;;;;;;;;5029736;28;20049;-76
2022/11/08 06:11:04;;;;;;;23.95;8.30;;;;;;;;;;4991450;28;20041;-76
2022/11/08 06:13:32;;;;;;;25.02;7.55;;;;;;;;;;5031336;28;20037;-74
2022/11/08 06:16:04;;;;;;;14.15;8.25;;;;;;;;;;5045533;28;20753;-74
2022/11/08 06:18:32;;;;;;;11.20;6.18;;;;;;;;;;5044076;28;20224;-75
2022/11/08 06:21:00;;;;;;;15.20;7.35;;;;;;;;;;5016666;28;20049;-75
2022/11/08 06:23:28;;;;;;;15.88;7.60;;;;;;;;;;5023232;28;20496;-75
2022/11/08 06:25:55;;;;;;;11.05;8.00;;;;;;;;;;4989551;28;20083;-76
2022/11/08 06:28:23;;;;;;;15.65;8.05;;;;;;;;;;4994876;28;20405;-76
2022/11/08 06:30:50;;;;;;;12.98;7.53;;;;;;;;;;4991563;28;20082;-75
2022/11/08 06:33:19;;;;;;;24.85;7.45;;;;;;;;;;5024714;28;20152;-76
2022/11/08 06:35:47;;;;;;;18.23;8.32;;;;;;;;;;5023496;28;20045;-75
2022/11/08 06:38:14;;;;;;;12.45;7.28;;;;;;;;;;5017431;28;20041;-75
2022/11/08 06:40:41;;;;;;;12.50;8.15;;;;;;;;;;5012072;28;20050;-74
2022/11/08 06:43:10;;;;;;;19.17;8.13;;;;;;;;;;5024795;28;20033;-73
2022/11/08 06:45:45;;;;;;;7.97;7.15;;;;;;;;;;5028844;28;20502;-74
2022/11/08 06:48:12;;;;;;;13.10;7.38;;;;;;;;;;5030183;28;20042;-74
2022/11/08 06:50:41;;;;;;;16.42;7.50;;;;;;;;;;5011455;28;20322;-75
2022/11/08 06:53:10;;;;;;;18.77;8.32;;;;;;;;;;5024755;28;20485;-75
2022/11/08 06:55:37;;;;;;;12.05;7.05;;;;;;;;;;5027581;28;20046;-75
2022/11/08 06:58:05;;;;;;;9.65;6.57;;;;;;;;;;5027564;28;20044;-75
2022/11/08 07:00:32;;;;;;;10.48;7.22;;;;;;;;;;5025870;28;20405;-74
2022/11/08 07:03:00;;;;;;;24.05;7.32;;;;;;;;;;5013152;28;20044;-74
2022/11/08 07:05:28;;;;;;;13.30;7.53;;;;;;;;;;5029456;28;20045;-75
2022/11/08 07:08:00;;;;;;;11.48;7.15;;;;;;;;;;5029779;28;20057;-75
2022/11/08 07:10:28;;;;;;;11.38;7.60;;;;;;;;;;5010236;28;20567;-75
2022/11/08 07:13:00;;;;;;;11.40;7.47;;;;;;;;;;5027737;28;20045;-75
2022/11/08 07:15:27;;;;;;;12.30;8.15;;;;;;;;;;5025394;28;20785;-75
2022/11/08 07:17:58;;;;;;;10.55;7.90;;;;;;;;;;5026783;28;20049;-74
2022/11/08 07:20:26;;;;;;;11.23;7.70;;;;;;;;;;5033092;28;20056;-75
2022/11/08 07:22:55;;;;;;;13.32;7.50;;;;;;;;;;5035081;28;20132;-76
2022/11/08 07:25:23;;;;;;;18.58;7.85;;;;;;;;;;5024268;28;20409;-75
2022/11/08 07:27:50;;;;;;;14.77;7.75;;;;;;;;;;5029238;28;20033;-74
2022/11/08 07:30:21;;;;;;;14.00;8.25;;;;;;;;;;5026386;28;20046;-74
2022/11/08 07:32:49;;;;;;;9.70;7.63;;;;;;;;;;5004939;28;20492;-74
2022/11/08 07:35:16;;;;;;;16.58;7.72;;;;;;;;;;5023812;28;20494;-74
2022/11/08 07:37:44;;;;;;;14.40;7.82;;;;;;;;;;5007872;28;20046;-73
2022/11/08 07:40:11;;;;;;;8.80;6.15;;;;;;;;;;5007505;28;20072;-75
2022/11/08 07:42:39;;;;;;;11.55;6.72;;;;;;;;;;5006613;28;20485;-74
2022/11/08 07:45:27;;;;;;;13.25;7.43;;;;;;;;;;5008706;28;20037;-74
2022/11/08 07:47:58;;;;;;;15.70;7.60;;;;;;;;;;5001063;28;20038;-74
2022/11/08 07:50:50;;;;;;;10.50;7.07;;;;;;;;;;5000046;28;20413;-74
2022/11/08 07:53:18;;;;;;;8.43;6.88;;;;;;;;;;5004537;28;20414;-74
2022/11/08 07:55:52;;;;;;;9.02;7.22;;;;;;;;;;5001388;28;20049;-74
2022/11/08 07:58:24;;;;;;;9.38;7.40;;;;;;;;;;5006002;28;20412;-74
2022/11/08 08:01:04;;;;;;;10.63;7.25;;;;;;;;;;5008550;28;20685;-74
2022/11/08 08:03:37;;;;;;;10.38;7.13;;;;;;;;;;5006068;28;20133;-73
2022/11/08 08:06:08;;;;;;;12.63;7.70;;;;;;;;;;5005694;28;20054;-74
2022/11/08 08:08:41;;;;;;;13.23;8.55;;;;;;;;;;5007313;28;20046;-74
2022/11/08 08:11:27;;;;;;;13.93;8.15;;;;;;;;;;5007632;28;20053;-74
2022/11/08 08:14:01;;;;;;;11.93;7.78;;;;;;;;;;5006539;28;20046;-74
2022/11/08 08:16:48;;;;;;;12.07;7.03;;;;;;;;;;5008199;28;20139;-74
2022/11/08 08:19:31;;;;;;;12.30;8.15;;;;;;;;;;5007958;28;20050;-74
2022/11/08 08:22:24;;;;;;;10.05;7.05;;;;;;;;;;4991281;28;20069;-74
2022/11/08 08:24:57;;;;;;;9.75;7.25;;;;;;;;;;4990618;28;20047;-74
2022/11/08 08:27:33;;;;;;;11.95;8.23;;;;;;;;;;5004192;28;20041;-74
2022/11/08 08:30:06;;;;;;;8.75;7.85;;;;;;;;;;5008667;28;20136;-74
2022/11/08 08:32:33;;;;;;;11.13;6.85;;;;;;;;;;5008472;28;20049;-74
2022/11/08 08:35:27;;;;;;;8.02;7.22;;;;;;;;;;5005378;28;20069;-74
2022/11/08 08:37:57;;;;;;;12.68;7.32;;;;;;;;;;5024408;28;20053;-74
2022/11/08 08:40:30;;;;;;;10.32;7.93;;;;;;;;;;5019553;28;20050;-75
2022/11/08 08:43:03;;;;;;;9.27;7.72;;;;;;;;;;4982316;28;20054;-74
2022/11/08 08:46:05;;;;;;;9.93;6.50;;;;;;;;;;4966431;28;20050;-74
2022/11/08 08:48:34;;;;;;;8.80;7.63;;;;;;;;;;4950457;28;20050;-74
2022/11/08 08:51:06;;;;;;;8.77;7.53;;;;;;;;;;4966942;28;20046;-73
2022/11/08 08:53:57;;;;;;;8.52;7.50;;;;;;;;;;4965374;28;20645;-73
2022/11/08 08:56:46;;;;;;;8.45;7.15;;;;;;;;;;4963922;28;20046;-74
2022/11/08 08:59:28;;;;;;;9.32;8.13;;;;;;;;;;4978203;28;20589;-74
2022/11/08 09:02:17;;;;;;;10.05;7.00;;;;;;;;;;4984009;28;20153;-74
2022/11/08 09:05:04;;;;;;;8.13;7.13;;;;;;;;;;4969851;28;20433;-74
2022/11/08 09:07:34;;;;;;;7.65;6.95;;;;;;;;;;4985520;28;20049;-73
2022/11/08 09:10:07;;;;;;;9.13;8.10;;;;;;;;;;4976305;28;20514;-74
2022/11/08 09:12:34;;;;;;;10.20;7.70;;;;;;;;;;4968294;28;20053;-75
2022/11/08 09:15:03;;;;;;;8.70;7.15;;;;;;;;;;4997003;28;20465;-74
2022/11/08 09:17:30;;;;;;;9.52;7.90;;;;;;;;;;5008057;28;20054;-74
2022/11/08 09:19:58;;;;;;;9.63;7.68;;;;;;;;;;5007624;28;20042;-73
2022/11/08 09:22:25;;;;;;;13.85;8.15;;;;;;;;;;5007169;28;20457;-73
2022/11/08 09:24:52;;;;;;;9.05;7.68;;;;;;;;;;5005904;28;20116;-73
2022/11/08 09:27:19;;;;;;;8.88;7.88;;;;;;;;;;5007681;28;20049;-73
2022/11/08 09:29:47;;;;;;;11.15;8.57;;;;;;;;;;4997889;28;20042;-72
2022/11/08 09:32:14;;;;;;;9.25;8.18;;;;;;;;;;4990568;28;20448;-73
2022/11/08 09:34:41;;;;;;;8.93;7.93;;;;;;;;;;4995550;28;20128;-73
2022/11/08 09:37:09;;;;;;;10.35;8.70;;;;;;;;;;4998500;28;20037;-74
2022/11/08 09:39:36;;;;;;;12.57;8.98;;;;;;;;;;5001379;28;20124;-74
2022/11/08 09:42:04;;;;;;;12.45;10.05;;;;;;;;;;5004225;28;20041;-73
2022/11/08 09:44:50;;;;;;;30.55;13.35;;;;;;;;;;5006279;28;20092;-73
2022/11/08 09:47:19;;;;;;;22.58;11.93;;;;;;;;;;5006894;28;20037;-73
2022/11/08 09:49:50;;;;;;;20.83;12.30;;;;;;;;;;5005926;28;20041;-74
2022/11/08 09:52:22;;;;;;;15.15;10.63;;;;;;;;;;5004886;28;20037;-73
2022/11/08 09:54:51;;;;;;;13.18;10.48;;;;;;;;;;5020268;28;20046;-73
2022/11/08 09:57:31;;;;;;;13.23;10.93;;;;;;;;;;5002598;28;20046;-73
2022/11/08 10:00:01;;;;;;;16.05;10.23;;;;;;;;;;5004875;28;20165;-74
2022/11/08 10:02:31;;;;;;;14.60;11.32;;;;;;;;;;5003028;28;20183;-74
2022/11/08 10:05:05;;;;;;;12.20;10.38;;;;;;;;;;5016406;28;20100;-73
2022/11/08 10:07:40;;;;;;;13.07;10.75;;;;;;;;;;5011237;28;20049;-74
2022/11/08 10:10:27;;;;;;;14.85;10.98;;;;;;;;;;4979149;28;20100;-74
2022/11/08 10:12:54;;;;;;;14.95;8.98;;;;;;;;;;4987704;28;20046;-73
2022/11/08 10:15:29;;;;;;;12.35;11.00;;;;;;;;;;4987279;28;20407;-74
2022/11/08 10:18:11;;;;;;;11.57;10.38;;;;;;;;;;5003360;28;20058;-75
2022/11/08 10:20:47;;;;;;;12.93;10.07;;;;;;;;;;4988009;28;20069;-74
2022/11/08 10:23:20;;;;;;;11.85;9.95;;;;;;;;;;4987145;28;20564;-75
2022/11/08 10:25:58;;;;;;;15.10;11.30;;;;;;;;;;4986185;28;20042;-75
2022/11/08 10:28:30;;;;;;;16.33;12.23;;;;;;;;;;4987279;28;20053;-75
2022/11/08 10:30:57;;;;;;;11.13;9.57;;;;;;;;;;4987145;28;20057;-75
2022/11/08 10:33:30;;;;;;;12.27;10.70;;;;;;;;;;4992803;28;20525;-75
2022/11/08 10:36:03;;;;;;;13.15;10.63;;;;;;;;;;5021230;28;20124;-75
2022/11/08 10:38:35;;;;;;;13.20;10.48;;;;;;;;;;5019005;28;20046;-75
2022/11/08 10:41:22;;;;;;;12.52;10.70;;;;;;;;;;5016730;28;20038;-75
2022/11/08 10:43:58;;;;;;;15.43;10.00;;;;;;;;;;5006784;28;20048;-76
2022/11/08 10:46:26;;;;;;;11.40;9.68;;;;;;;;;;5000650;28;20034;-75
2022/11/08 10:48:56;;;;;;;13.70;9.57;;;;;;;;;;5006485;28;20049;-75
2022/11/08 10:51:23;;;;;;;12.20;9.95;;;;;;;;;;5015306;28;20043;-75
2022/11/08 10:53:50;;;;;;;10.73;9.00;;;;;;;;;;4992123;28;20054;-73
2022/11/08 10:56:19;;;;;;;11.38;9.25;;;;;;;;;;5007554;28;20145;-73
2022/11/08 10:58:46;;;;;;;12.55;9.80;;;;;;;;;;5010247;28;20078;-74
2022/11/08 11:01:15;;;;;;;10.23;8.68;;;;;;;;;;4999859;28;20050;-74
2022/11/08 11:03:43;;;;;;;9.68;8.35;;;;;;;;;;5006517;28;20053;-75
2022/11/08 11:06:21;;;;;;;11.48;9.55;;;;;;;;;;5009820;28;20049;-75
2022/11/08 11:08:54;;;;;;;12.65;10.15;;;;;;;;;;5010235;28;20052;-73
2022/11/08 11:11:26;;;;;;;11.77;10.00;;;;;;;;;;5006307;28;20267;-73
2022/11/08 11:14:06;;;;;;;13.07;11.00;;;;;;;;;;4990157;28;20062;-72
2022/11/08 11:16:37;;;;;;;10.23;8.38;;;;;;;;;;4990464;28;20080;-73
2022/11/08 11:19:05;;;;;;;10.40;8.02;;;;;;;;;;4990085;28;20050;-75
2022/11/08 11:21:37;;;;;;;10.23;7.85;;;;;;;;;;4989783;28;20499;-75
2022/11/08 11:24:09;;;;;;;9.90;7.75;;;;;;;;;;4988205;28;20124;-73
2022/11/08 11:26:45;;;;;;;8.05;7.18;;;;;;;;;;4990184;28;20081;-73
2022/11/08 11:29:23;;;;;;;7.97;6.03;;;;;;;;;;4995288;28;20050;-73
2022/11/08 11:31:51;;;;;;;6.20;5.60;;;;;;;;;;4989737;28;20042;-73
2022/11/08 11:34:19;;;;;;;6.82;5.80;;;;;;;;;;5018642;28;20105;-75
2022/11/08 11:37:12;;;;;;;6.97;5.32;;;;;;;;;;4989604;28;20050;-74
2022/11/08 11:39:48;;;;;;;9.15;5.63;;;;;;;;;;4979576;28;20074;-74
2022/11/08 11:42:24;;;;;;;5.80;5.20;;;;;;;;;;5002914;28;20073;-74
2022/11/08 11:45:28;;;;;;;8.60;5.93;;;;;;;;;;5004674;28;20056;-74
2022/11/08 11:47:56;;;;;;;7.32;5.65;;;;;;;;;;5004903;28;20145;-74
2022/11/08 11:50:44;;;;;;;10.30;6.07;;;;;;;;;;4997507;28;20046;-75
2022/11/08 11:53:22;;;;;;;6.85;6.07;;;;;;;;;;5007328;28;20266;-75
2022/11/08 11:55:55;;;;;;;6.05;5.35;;;;;;;;;;5002697;28;20292;-74
2022/11/08 11:58:29;;;;;;;6.50;5.82;;;;;;;;;;5000171;28;20038;-73
2022/11/08 12:01:16;;;;;;;7.30;5.63;;;;;;;;;;5020276;28;20444;-74
2022/11/08 12:03:53;;;;;;;7.25;6.55;;;;;;;;;;5005087;28;20135;-74
2022/11/08 12:06:28;;;;;;;7.30;6.43;;;;;;;;;;5004599;28;20037;-75
2022/11/08 12:09:01;;;;;;;9.38;6.88;;;;;;;;;;5023391;28;20099;-74
2022/11/08 12:11:38;;;;;;;6.10;5.38;;;;;;;;;;5001189;28;20093;-74
2022/11/08 12:14:14;;;;;;;6.15;5.55;;;;;;;;;;4997325;28;20053;-74
2022/11/08 12:16:47;;;;;;;5.25;4.75;;;;;;;;;;5024086;28;20048;-74
2022/11/08 12:19:31;;;;;;;6.45;5.75;;;;;;;;;;5007837;28;20050;-74
2022/11/08 12:22:01;;;;;;;6.60;5.00;;;;;;;;;;5017311;28;20045;-74
2022/11/08 12:24:41;;;;;;;6.55;5.40;;;;;;;;;;5003559;28;20049;-74
2022/11/08 12:27:17;;;;;;;6.90;4.50;;;;;;;;;;5003837;28;20046;-75
2022/11/08 12:29:54;;;;;;;4.72;4.22;;;;;;;;;;5004626;28;20042;-74
2022/11/08 12:32:40;;;;;;;4.82;4.22;;;;;;;;;;5001266;28;20128;-74
2022/11/08 12:35:15;;;;;;;3.70;3.40;;;;;;;;;;5002770;28;20049;-74
2022/11/08 12:37:52;;;;;;;5.22;3.70;;;;;;;;;;4996606;28;20049;-74
2022/11/08 12:40:42;;;;;;;4.72;3.97;;;;;;;;;;5002512;28;20039;-74
2022/11/08 12:43:15;;;;;;;4.75;4.30;;;;;;;;;;4999508;28;20047;-74
2022/11/08 12:45:46;;;;;;;4.15;3.75;;;;;;;;;;5004459;28;20405;-74
2022/11/08 12:48:22;;;;;;;4.35;3.85;;;;;;;;;;5005385;28;20046;-75
2022/11/08 12:51:03;;;;;;;4.47;4.00;;;;;;;;;;5008416;28;20145;-74
2022/11/08 12:53:36;;;;;;;4.13;3.72;;;;;;;;;;5008977;28;20041;-74
2022/11/08 12:56:05;;;;;;;7.07;5.55;;;;;;;;;;5008422;28;20402;-73
2022/11/08 12:58:41;;;;;;;6.80;4.40;;;;;;;;;;5008689;28;20099;-74
2022/11/08 13:01:13;;;;;;;7.03;3.78;;;;;;;;;;5007785;28;20049;-75
2022/11/08 13:03:44;;;;;;;5.13;3.90;;;;;;;;;;5006727;28;20046;-74
2022/11/08 13:06:16;;;;;;;7.57;3.23;;;;;;;;;;5022696;28;20057;-75
2022/11/08 13:09:13;;;;;;;3.40;3.10;;;;;;;;;;5005852;28;20272;-74
2022/11/08 13:11:40;;;;;;;5.30;3.15;;;;;;;;;;4988335;28;20141;-74
2022/11/08 13:14:15;;;;;;;4.22;3.17;;;;;;;;;;5007907;28;20054;-74
2022/11/08 13:17:05;;;;;;;3.40;3.20;;;;;;;;;;5007496;28;20077;-74
2022/11/08 13:19:51;;;;;;;3.38;3.00;;;;;;;;;;5004953;28;20050;-75
2022/11/08 13:22:31;;;;;;;3.60;3.30;;;;;;;;;;4993597;28;20050;-74
2022/11/08 13:24:59;;;;;;;4.13;3.45;;;;;;;;;;5006574;28;20049;-74
2022/11/08 13:27:36;;;;;;;5.07;3.35;;;;;;;;;;5034634;28;20092;-73
2022/11/08 13:30:03;;;;;;;3.70;3.17;;;;;;;;;;5017091;28;20056;-74
2022/11/08 13:32:46;;;;;;;3.83;3.00;;;;;;;;;;5096373;22;20056;-75
2022/11/08 13:35:20;;;;;;;3.30;2.60;;;;;;;;;;5028311;28;20402;-75
2022/11/08 13:37:55;;;;;;;4.32;2.83;;;;;;;;;;5011940;28;20540;-75
2022/11/08 13:40:27;;;;;;;3.17;2.90;;;;;;;;;;5023648;28;20042;-75
2022/11/08 13:42:57;;;;;;;5.90;2.80;;;;;;;;;;5024935;28;20096;-75
2022/11/08 13:45:29;;;;;;;3.28;2.97;;;;;;;;;;5008683;28;20068;-76
2022/11/08 13:47:57;;;;;;;5.60;3.08;;;;;;;;;;5027525;28;20041;-75
2022/11/08 13:50:28;;;;;;;3.05;2.75;;;;;;;;;;5026901;28;20037;-76
2022/11/08 13:53:05;;;;;;;3.10;2.80;;;;;;;;;;5028369;28;20033;-75
2022/11/08 13:55:42;;;;;;;8.23;2.35;;;;;;;;;;5029259;28;20051;-75
2022/11/08 13:58:28;;;;;;;2.42;2.17;;;;;;;;;;5026402;28;20045;-74
2022/11/08 14:00:55;;;;;;;3.05;2.75;;;;;;;;;;5026235;28;20045;-76
2022/11/08 14:03:46;;;;;;;2.60;2.40;;;;;;;;;;5024380;28;20053;-75
2022/11/08 14:06:27;;;;;;;3.38;2.72;;;;;;;;;;5026422;28;20124;-76
2022/11/08 14:09:11;;;;;;;2.80;2.60;;;;;;;;;;5027391;28;20088;-75
2022/11/08 14:11:42;;;;;;;3.40;3.10;;;;;;;;;;5007063;28;20144;-75
2022/11/08 14:14:20;;;;;;;3.63;2.60;;;;;;;;;;5008195;28;20057;-76
2022/11/08 14:16:47;;;;;;;2.90;2.67;;;;;;;;;;5025973;28;20112;-75
2022/11/08 14:19:21;;;;;;;5.72;2.80;;;;;;;;;;5024371;28;20053;-75
2022/11/08 14:21:50;;;;;;;4.93;2.88;;;;;;;;;;5012962;28;20038;-76
2022/11/08 14:24:19;;;;;;;2.83;2.47;;;;;;;;;;5030709;28;20045;-75
2022/11/08 14:26:47;;;;;;;2.97;2.50;;;;;;;;;;5031636;28;20120;-75
2022/11/08 14:29:16;;;;;;;2.55;2.35;;;;;;;;;;5014184;28;20045;-77
2022/11/08 14:31:43;;;;;;;3.05;2.53;;;;;;;;;;5012945;28;20060;-75
2022/11/08 14:34:26;;;;;;;4.85;2.70;;;;;;;;;;5031402;28;20053;-75
2022/11/08 14:36:54;;;;;;;3.50;3.20;;;;;;;;;;5031004;28;20053;-75
2022/11/08 14:39:27;;;;;;;3.35;2.95;;;;;;;;;;5030950;28;20051;-74
2022/11/08 14:41:56;;;;;;;3.72;2.47;;;;;;;;;;5013788;28;20452;-75
2022/11/08 14:44:24;;;;;;;3.08;2.47;;;;;;;;;;4988701;28;20104;-77
2022/11/08 14:46:51;;;;;;;2.20;2.10;;;;;;;;;;5020522;28;20049;-75
2022/11/08 14:49:31;;;;;;;4.28;2.60;;;;;;;;;;5013826;28;20043;-75
2022/11/08 14:52:14;;;;;;;3.13;2.63;;;;;;;;;;4988642;28;20088;-75
2022/11/08 14:54:43;;;;;;;3.28;2.83;;;;;;;;;;5033348;28;20133;-75
2022/11/08 14:57:34;;;;;;;5.70;3.28;;;;;;;;;;5032045;28;20053;-75
2022/11/08 15:00:23;;;;;;;2.60;2.40;;;;;;;;;;5029668;28;20168;-75
2022/11/08 15:02:52;;;;;;;3.67;3.05;;;;;;;;;;5028893;28;20045;-74
2022/11/08 15:05:32;;;;;;;3.47;3.08;;;;;;;;;;5012006;28;20049;-75
2022/11/08 15:08:01;;;;;;;5.25;2.63;;;;;;;;;;5030133;28;20390;-74
2022/11/08 15:10:28;;;;;;;4.88;3.60;;;;;;;;;;5011878;28;20072;-73
2022/11/08 15:12:56;;;;;;;6.45;3.90;;;;;;;;;;5031320;28;20044;-74
2022/11/08 15:15:26;;;;;;;8.07;4.13;;;;;;;;;;5029186;28;20044;-74
2022/11/08 15:18:14;;;;;;;6.90;4.10;;;;;;;;;;5028584;28;20041;-74
2022/11/08 15:20:53;;;;;;;15.30;8.73;;;;;;;;;;5025949;28;20404;-75
2022/11/08 15:23:25;;;;;;;21.98;11.73;;;;;;;;;;5026889;28;20045;-74